sensor_id;sensor_type;location;lat;lon;timestamp;P1;durP1;ratioP1;P2;durP2;ratioP2
73321;SDS011;61549;37.044;22.128;2023-05-07T00:01:08;8.85;;;6.82;;
73321;SDS011;61549;37.044;22.128;2023-05-07T00:03:34;8.35;;;6.93;;
73321;SDS011;61549;37.044;22.128;2023-05-07T00:05:59;7.38;;;6.50;;
73321;SDS011;61549;37.044;22.128;2023-05-07T00:08:25;8.73;;;6.18;;
73321;SDS011;61549;37.044;22.128;2023-05-07T00:10:52;8.60;;;6.22;;
73321;SDS011;61549;37.044;22.128;2023-05-07T00:13:18;8.00;;;6.60;;
73321;SDS011;61549;37.044;22.128;2023-05-07T00:15:45;7.18;;;5.93;;
73321;SDS011;61549;37.044;22.128;2023-05-07T00:18:10;8.23;;;6.50;;
73321;SDS011;61549;37.044;22.128;2023-05-07T00:20:36;7.43;;;5.65;;
73321;SDS011;61549;37.044;22.128;2023-05-07T00:23:02;9.15;;;5.95;;
73321;SDS011;61549;37.044;22.128;2023-05-07T00:25:28;6.93;;;5.82;;
73321;SDS011;61549;37.044;22.128;2023-05-07T00:27:54;9.45;;;6.10;;
73321;SDS011;61549;37.044;22.128;2023-05-07T00:30:20;8.10;;;5.90;;
73321;SDS011;61549;37.044;22.128;2023-05-07T00:32:46;7.20;;;6.22;;
73321;SDS011;61549;37.044;22.128;2023-05-07T00:35:14;9.52;;;6.43;;
73321;SDS011;61549;37.044;22.128;2023-05-07T00:37:39;9.18;;;6.47;;
73321;SDS011;61549;37.044;22.128;2023-05-07T00:40:07;7.72;;;6.03;;
73321;SDS011;61549;37.044;22.128;2023-05-07T00:42:33;7.82;;;5.80;;
73321;SDS011;61549;37.044;22.128;2023-05-07T00:44:59;8.23;;;5.63;;
73321;SDS011;61549;37.044;22.128;2023-05-07T00:47:25;7.32;;;5.05;;
73321;SDS011;61549;37.044;22.128;2023-05-07T00:49:52;6.10;;;5.05;;
73321;SDS011;61549;37.044;22.128;2023-05-07T00:52:18;6.07;;;4.82;;
73321;SDS011;61549;37.044;22.128;2023-05-07T00:54:46;5.85;;;4.70;;
73321;SDS011;61549;37.044;22.128;2023-05-07T00:57:13;7.55;;;4.80;;
73321;SDS011;61549;37.044;22.128;2023-05-07T00:59:39;6.30;;;4.70;;
73321;SDS011;61549;37.044;22.128;2023-05-07T01:02:06;8.68;;;5.03;;
73321;SDS011;61549;37.044;22.128;2023-05-07T01:04:32;7.35;;;5.47;;
73321;SDS011;61549;37.044;22.128;2023-05-07T01:06:58;7.63;;;5.43;;
73321;SDS011;61549;37.044;22.128;2023-05-07T01:09:26;9.35;;;5.22;;
73321;SDS011;61549;37.044;22.128;2023-05-07T01:11:53;7.75;;;5.50;;
73321;SDS011;61549;37.044;22.128;2023-05-07T01:14:20;6.30;;;4.93;;
73321;SDS011;61549;37.044;22.128;2023-05-07T01:19:17;6.10;;;4.50;;
73321;SDS011;61549;37.044;22.128;2023-05-07T01:21:44;6.57;;;5.05;;
73321;SDS011;61549;37.044;22.128;2023-05-07T01:24:13;7.05;;;5.15;;
73321;SDS011;61549;37.044;22.128;2023-05-07T01:26:39;6.30;;;5.10;;
73321;SDS011;61549;37.044;22.128;2023-05-07T01:29:05;6.85;;;5.13;;
73321;SDS011;61549;37.044;22.128;2023-05-07T01:31:32;7.03;;;5.03;;
73321;SDS011;61549;37.044;22.128;2023-05-07T01:33:59;6.93;;;5.10;;
73321;SDS011;61549;37.044;22.128;2023-05-07T01:36:27;6.18;;;5.05;;
73321;SDS011;61549;37.044;22.128;2023-05-07T01:38:55;6.82;;;4.90;;
73321;SDS011;61549;37.044;22.128;2023-05-07T01:41:22;6.78;;;5.10;;
73321;SDS011;61549;37.044;22.128;2023-05-07T01:43:49;5.60;;;4.75;;
73321;SDS011;61549;37.044;22.128;2023-05-07T01:46:17;6.93;;;4.93;;
73321;SDS011;61549;37.044;22.128;2023-05-07T01:48:44;7.05;;;4.95;;
73321;SDS011;61549;37.044;22.128;2023-05-07T01:51:11;8.25;;;4.78;;
73321;SDS011;61549;37.044;22.128;2023-05-07T01:53:38;6.45;;;5.13;;
73321;SDS011;61549;37.044;22.128;2023-05-07T01:56:05;6.95;;;5.53;;
73321;SDS011;61549;37.044;22.128;2023-05-07T01:58:32;7.55;;;5.25;;
73321;SDS011;61549;37.044;22.128;2023-05-07T02:00:58;8.20;;;5.78;;
73321;SDS011;61549;37.044;22.128;2023-05-07T02:03:24;9.70;;;6.30;;
73321;SDS011;61549;37.044;22.128;2023-05-07T02:05:50;6.80;;;5.60;;
73321;SDS011;61549;37.044;22.128;2023-05-07T02:08:16;8.15;;;6.20;;
73321;SDS011;61549;37.044;22.128;2023-05-07T02:10:42;8.77;;;6.15;;
73321;SDS011;61549;37.044;22.128;2023-05-07T02:13:08;8.88;;;6.00;;
73321;SDS011;61549;37.044;22.128;2023-05-07T02:15:33;9.90;;;6.32;;
73321;SDS011;61549;37.044;22.128;2023-05-07T02:18:04;7.70;;;5.28;;
73321;SDS011;61549;37.044;22.128;2023-05-07T02:20:34;8.40;;;5.80;;
73321;SDS011;61549;37.044;22.128;2023-05-07T02:23:00;7.38;;;5.28;;
73321;SDS011;61549;37.044;22.128;2023-05-07T02:25:26;6.28;;;5.15;;
73321;SDS011;61549;37.044;22.128;2023-05-07T02:27:51;7.03;;;5.32;;
73321;SDS011;61549;37.044;22.128;2023-05-07T02:30:18;10.07;;;5.57;;
73321;SDS011;61549;37.044;22.128;2023-05-07T02:35:18;8.27;;;5.63;;
73321;SDS011;61549;37.044;22.128;2023-05-07T02:37:44;6.90;;;5.75;;
73321;SDS011;61549;37.044;22.128;2023-05-07T02:40:10;9.73;;;6.13;;
73321;SDS011;61549;37.044;22.128;2023-05-07T02:42:36;8.35;;;5.53;;
73321;SDS011;61549;37.044;22.128;2023-05-07T02:45:02;8.80;;;5.30;;
73321;SDS011;61549;37.044;22.128;2023-05-07T02:47:28;10.10;;;5.45;;
73321;SDS011;61549;37.044;22.128;2023-05-07T02:49:54;7.90;;;5.28;;
73321;SDS011;61549;37.044;22.128;2023-05-07T02:52:20;7.50;;;5.70;;
73321;SDS011;61549;37.044;22.128;2023-05-07T02:54:47;7.20;;;5.30;;
73321;SDS011;61549;37.044;22.128;2023-05-07T02:57:13;8.38;;;5.47;;
73321;SDS011;61549;37.044;22.128;2023-05-07T02:59:38;8.18;;;5.60;;
73321;SDS011;61549;37.044;22.128;2023-05-07T03:02:04;9.68;;;5.65;;
73321;SDS011;61549;37.044;22.128;2023-05-07T03:04:30;9.43;;;5.68;;
73321;SDS011;61549;37.044;22.128;2023-05-07T03:09:37;6.55;;;5.60;;
73321;SDS011;61549;37.044;22.128;2023-05-07T03:12:02;9.30;;;5.80;;
73321;SDS011;61549;37.044;22.128;2023-05-07T03:14:28;6.90;;;5.60;;
73321;SDS011;61549;37.044;22.128;2023-05-07T03:16:54;7.22;;;5.90;;
73321;SDS011;61549;37.044;22.128;2023-05-07T03:19:20;7.28;;;5.53;;
73321;SDS011;61549;37.044;22.128;2023-05-07T03:21:46;9.38;;;5.57;;
73321;SDS011;61549;37.044;22.128;2023-05-07T03:24:12;6.63;;;5.65;;
73321;SDS011;61549;37.044;22.128;2023-05-07T03:26:38;10.00;;;5.88;;
73321;SDS011;61549;37.044;22.128;2023-05-07T03:29:03;7.28;;;5.80;;
73321;SDS011;61549;37.044;22.128;2023-05-07T03:31:29;7.43;;;5.57;;
73321;SDS011;61549;37.044;22.128;2023-05-07T03:33:56;7.40;;;6.13;;
73321;SDS011;61549;37.044;22.128;2023-05-07T03:36:22;10.80;;;6.40;;
73321;SDS011;61549;37.044;22.128;2023-05-07T03:38:49;8.05;;;5.90;;
73321;SDS011;61549;37.044;22.128;2023-05-07T03:41:15;7.70;;;5.80;;
73321;SDS011;61549;37.044;22.128;2023-05-07T03:43:41;9.30;;;6.72;;
73321;SDS011;61549;37.044;22.128;2023-05-07T03:46:07;7.30;;;5.85;;
73321;SDS011;61549;37.044;22.128;2023-05-07T03:48:32;10.05;;;6.03;;
73321;SDS011;61549;37.044;22.128;2023-05-07T03:50:58;9.15;;;5.80;;
73321;SDS011;61549;37.044;22.128;2023-05-07T03:53:24;8.80;;;5.88;;
73321;SDS011;61549;37.044;22.128;2023-05-07T03:55:50;7.40;;;6.07;;
73321;SDS011;61549;37.044;22.128;2023-05-07T03:58:16;9.05;;;6.00;;
73321;SDS011;61549;37.044;22.128;2023-05-07T04:00:42;8.35;;;5.60;;
73321;SDS011;61549;37.044;22.128;2023-05-07T04:03:08;8.60;;;5.80;;
73321;SDS011;61549;37.044;22.128;2023-05-07T04:05:34;6.70;;;5.43;;
73321;SDS011;61549;37.044;22.128;2023-05-07T04:08:00;7.07;;;5.50;;
73321;SDS011;61549;37.044;22.128;2023-05-07T04:10:26;8.13;;;5.50;;
73321;SDS011;61549;37.044;22.128;2023-05-07T04:12:53;9.40;;;5.90;;
73321;SDS011;61549;37.044;22.128;2023-05-07T04:15:19;9.35;;;5.72;;
73321;SDS011;61549;37.044;22.128;2023-05-07T04:17:45;9.25;;;5.72;;
73321;SDS011;61549;37.044;22.128;2023-05-07T04:20:13;7.97;;;5.50;;
73321;SDS011;61549;37.044;22.128;2023-05-07T04:22:40;8.18;;;5.20;;
73321;SDS011;61549;37.044;22.128;2023-05-07T04:25:07;7.07;;;4.93;;
73321;SDS011;61549;37.044;22.128;2023-05-07T04:27:34;7.65;;;5.15;;
73321;SDS011;61549;37.044;22.128;2023-05-07T04:30:02;6.40;;;4.45;;
73321;SDS011;61549;37.044;22.128;2023-05-07T04:32:28;6.30;;;4.80;;
73321;SDS011;61549;37.044;22.128;2023-05-07T04:34:55;6.97;;;4.65;;
73321;SDS011;61549;37.044;22.128;2023-05-07T04:37:21;6.45;;;4.25;;
73321;SDS011;61549;37.044;22.128;2023-05-07T04:39:47;6.88;;;5.00;;
73321;SDS011;61549;37.044;22.128;2023-05-07T04:42:16;8.32;;;5.40;;
73321;SDS011;61549;37.044;22.128;2023-05-07T04:44:43;6.97;;;5.45;;
73321;SDS011;61549;37.044;22.128;2023-05-07T04:47:10;7.32;;;5.50;;
73321;SDS011;61549;37.044;22.128;2023-05-07T04:49:36;7.40;;;5.65;;
73321;SDS011;61549;37.044;22.128;2023-05-07T04:52:05;7.40;;;5.65;;
73321;SDS011;61549;37.044;22.128;2023-05-07T04:54:31;7.03;;;5.40;;
73321;SDS011;61549;37.044;22.128;2023-05-07T04:56:57;6.40;;;5.43;;
73321;SDS011;61549;37.044;22.128;2023-05-07T04:59:22;9.52;;;5.90;;
73321;SDS011;61549;37.044;22.128;2023-05-07T05:01:48;8.52;;;5.90;;
73321;SDS011;61549;37.044;22.128;2023-05-07T05:04:23;7.30;;;5.95;;
73321;SDS011;61549;37.044;22.128;2023-05-07T05:06:49;6.70;;;5.30;;
73321;SDS011;61549;37.044;22.128;2023-05-07T05:09:15;6.63;;;4.95;;
73321;SDS011;61549;37.044;22.128;2023-05-07T05:11:41;6.55;;;4.57;;
73321;SDS011;61549;37.044;22.128;2023-05-07T05:14:07;7.80;;;5.38;;
73321;SDS011;61549;37.044;22.128;2023-05-07T05:16:33;5.97;;;5.20;;
73321;SDS011;61549;37.044;22.128;2023-05-07T05:18:59;7.07;;;5.50;;
73321;SDS011;61549;37.044;22.128;2023-05-07T05:21:26;11.05;;;7.70;;
73321;SDS011;61549;37.044;22.128;2023-05-07T05:23:52;8.95;;;4.88;;
73321;SDS011;61549;37.044;22.128;2023-05-07T05:26:18;6.65;;;4.80;;
73321;SDS011;61549;37.044;22.128;2023-05-07T05:28:43;5.70;;;4.65;;
73321;SDS011;61549;37.044;22.128;2023-05-07T05:31:09;7.82;;;4.63;;
73321;SDS011;61549;37.044;22.128;2023-05-07T05:33:35;6.68;;;5.03;;
73321;SDS011;61549;37.044;22.128;2023-05-07T05:36:01;8.75;;;4.90;;
73321;SDS011;61549;37.044;22.128;2023-05-07T05:38:27;8.43;;;5.35;;
73321;SDS011;61549;37.044;22.128;2023-05-07T05:40:53;8.05;;;5.15;;
73321;SDS011;61549;37.044;22.128;2023-05-07T05:43:19;6.03;;;4.93;;
73321;SDS011;61549;37.044;22.128;2023-05-07T05:45:44;7.80;;;4.93;;
73321;SDS011;61549;37.044;22.128;2023-05-07T05:48:10;5.72;;;4.53;;
73321;SDS011;61549;37.044;22.128;2023-05-07T05:50:36;6.32;;;4.75;;
73321;SDS011;61549;37.044;22.128;2023-05-07T05:53:02;6.15;;;4.78;;
73321;SDS011;61549;37.044;22.128;2023-05-07T05:55:28;7.07;;;4.65;;
73321;SDS011;61549;37.044;22.128;2023-05-07T05:57:55;7.13;;;4.90;;
73321;SDS011;61549;37.044;22.128;2023-05-07T06:00:21;7.05;;;4.50;;
73321;SDS011;61549;37.044;22.128;2023-05-07T06:02:48;6.28;;;4.70;;
73321;SDS011;61549;37.044;22.128;2023-05-07T06:05:13;6.15;;;4.72;;
73321;SDS011;61549;37.044;22.128;2023-05-07T06:07:40;8.35;;;4.97;;
73321;SDS011;61549;37.044;22.128;2023-05-07T06:10:06;9.10;;;5.13;;
73321;SDS011;61549;37.044;22.128;2023-05-07T06:12:32;6.07;;;4.38;;
73321;SDS011;61549;37.044;22.128;2023-05-07T06:14:58;5.05;;;4.13;;
73321;SDS011;61549;37.044;22.128;2023-05-07T06:17:23;5.90;;;4.47;;
73321;SDS011;61549;37.044;22.128;2023-05-07T06:19:50;6.90;;;4.75;;
73321;SDS011;61549;37.044;22.128;2023-05-07T06:22:17;6.78;;;4.60;;
73321;SDS011;61549;37.044;22.128;2023-05-07T06:24:43;6.38;;;4.30;;
73321;SDS011;61549;37.044;22.128;2023-05-07T06:27:09;5.20;;;4.60;;
73321;SDS011;61549;37.044;22.128;2023-05-07T06:29:34;5.72;;;4.50;;
73321;SDS011;61549;37.044;22.128;2023-05-07T06:34:56;7.78;;;4.05;;
73321;SDS011;61549;37.044;22.128;2023-05-07T06:37:22;5.93;;;4.10;;
73321;SDS011;61549;37.044;22.128;2023-05-07T06:39:48;8.63;;;4.93;;
73321;SDS011;61549;37.044;22.128;2023-05-07T06:42:13;6.65;;;4.20;;
73321;SDS011;61549;37.044;22.128;2023-05-07T06:44:39;6.28;;;4.72;;
73321;SDS011;61549;37.044;22.128;2023-05-07T06:47:05;7.45;;;4.65;;
73321;SDS011;61549;37.044;22.128;2023-05-07T06:49:31;4.85;;;4.10;;
73321;SDS011;61549;37.044;22.128;2023-05-07T06:51:57;5.50;;;4.00;;
73321;SDS011;61549;37.044;22.128;2023-05-07T06:54:23;5.43;;;3.88;;
73321;SDS011;61549;37.044;22.128;2023-05-07T06:56:49;4.60;;;4.03;;
73321;SDS011;61549;37.044;22.128;2023-05-07T06:59:15;6.97;;;4.00;;
73321;SDS011;61549;37.044;22.128;2023-05-07T07:01:41;5.07;;;4.00;;
73321;SDS011;61549;37.044;22.128;2023-05-07T07:04:07;6.05;;;3.45;;
73321;SDS011;61549;37.044;22.128;2023-05-07T07:06:33;7.20;;;3.55;;
73321;SDS011;61549;37.044;22.128;2023-05-07T07:08:59;6.18;;;3.47;;
73321;SDS011;61549;37.044;22.128;2023-05-07T07:11:25;3.53;;;3.20;;
73321;SDS011;61549;37.044;22.128;2023-05-07T07:13:51;4.43;;;3.30;;
73321;SDS011;61549;37.044;22.128;2023-05-07T07:16:19;4.68;;;3.40;;
73321;SDS011;61549;37.044;22.128;2023-05-07T07:18:46;3.97;;;3.25;;
73321;SDS011;61549;37.044;22.128;2023-05-07T07:21:12;4.70;;;3.53;;
73321;SDS011;61549;37.044;22.128;2023-05-07T07:23:37;4.40;;;3.22;;
73321;SDS011;61549;37.044;22.128;2023-05-07T07:26:07;6.30;;;3.22;;
73321;SDS011;61549;37.044;22.128;2023-05-07T07:28:34;3.83;;;3.10;;
73321;SDS011;61549;37.044;22.128;2023-05-07T07:31:00;5.20;;;3.47;;
73321;SDS011;61549;37.044;22.128;2023-05-07T07:33:26;5.20;;;3.30;;
73321;SDS011;61549;37.044;22.128;2023-05-07T07:35:52;6.40;;;3.45;;
73321;SDS011;61549;37.044;22.128;2023-05-07T07:40:47;5.68;;;3.33;;
73321;SDS011;61549;37.044;22.128;2023-05-07T07:43:13;4.72;;;3.45;;
73321;SDS011;61549;37.044;22.128;2023-05-07T07:45:39;4.00;;;3.20;;
73321;SDS011;61549;37.044;22.128;2023-05-07T07:48:05;5.57;;;3.30;;
73321;SDS011;61549;37.044;22.128;2023-05-07T07:50:31;5.38;;;3.13;;
73321;SDS011;61549;37.044;22.128;2023-05-07T07:52:56;5.47;;;3.20;;
73321;SDS011;61549;37.044;22.128;2023-05-07T07:55:22;5.65;;;3.38;;
73321;SDS011;61549;37.044;22.128;2023-05-07T07:57:49;3.67;;;3.22;;
73321;SDS011;61549;37.044;22.128;2023-05-07T08:02:59;4.75;;;3.65;;
73321;SDS011;61549;37.044;22.128;2023-05-07T08:05:26;3.88;;;3.28;;
73321;SDS011;61549;37.044;22.128;2023-05-07T08:07:51;6.18;;;3.58;;
73321;SDS011;61549;37.044;22.128;2023-05-07T08:10:18;4.40;;;3.20;;
73321;SDS011;61549;37.044;22.128;2023-05-07T08:12:48;4.75;;;3.60;;
73321;SDS011;61549;37.044;22.128;2023-05-07T08:15:14;4.97;;;3.58;;
73321;SDS011;61549;37.044;22.128;2023-05-07T08:17:40;4.05;;;3.40;;
73321;SDS011;61549;37.044;22.128;2023-05-07T08:20:06;6.03;;;3.70;;
73321;SDS011;61549;37.044;22.128;2023-05-07T08:22:34;4.95;;;3.50;;
73321;SDS011;61549;37.044;22.128;2023-05-07T08:25:00;5.78;;;3.40;;
73321;SDS011;61549;37.044;22.128;2023-05-07T08:27:26;5.03;;;3.40;;
73321;SDS011;61549;37.044;22.128;2023-05-07T08:29:52;5.85;;;3.60;;
73321;SDS011;61549;37.044;22.128;2023-05-07T08:32:18;3.83;;;3.20;;
73321;SDS011;61549;37.044;22.128;2023-05-07T08:34:44;3.40;;;2.90;;
73321;SDS011;61549;37.044;22.128;2023-05-07T08:37:10;5.55;;;3.30;;
73321;SDS011;61549;37.044;22.128;2023-05-07T08:39:36;5.22;;;3.38;;
73321;SDS011;61549;37.044;22.128;2023-05-07T08:42:01;4.82;;;3.30;;
73321;SDS011;61549;37.044;22.128;2023-05-07T08:44:32;4.28;;;3.55;;
73321;SDS011;61549;37.044;22.128;2023-05-07T08:47:03;4.80;;;3.35;;
73321;SDS011;61549;37.044;22.128;2023-05-07T08:49:31;3.83;;;3.08;;
73321;SDS011;61549;37.044;22.128;2023-05-07T08:51:59;6.18;;;3.50;;
73321;SDS011;61549;37.044;22.128;2023-05-07T08:54:25;3.53;;;3.10;;
73321;SDS011;61549;37.044;22.128;2023-05-07T08:56:52;3.17;;;2.80;;
73321;SDS011;61549;37.044;22.128;2023-05-07T08:59:18;4.05;;;2.95;;
73321;SDS011;61549;37.044;22.128;2023-05-07T09:01:44;4.32;;;3.30;;
73321;SDS011;61549;37.044;22.128;2023-05-07T09:04:10;3.72;;;2.90;;
73321;SDS011;61549;37.044;22.128;2023-05-07T09:06:37;3.83;;;3.22;;
73321;SDS011;61549;37.044;22.128;2023-05-07T09:09:07;3.50;;;2.80;;
73321;SDS011;61549;37.044;22.128;2023-05-07T09:11:33;3.58;;;3.00;;
73321;SDS011;61549;37.044;22.128;2023-05-07T09:14:01;5.20;;;3.28;;
73321;SDS011;61549;37.044;22.128;2023-05-07T09:16:31;5.85;;;3.33;;
73321;SDS011;61549;37.044;22.128;2023-05-07T09:18:58;4.10;;;2.90;;
73321;SDS011;61549;37.044;22.128;2023-05-07T09:23:56;3.60;;;2.90;;
73321;SDS011;61549;37.044;22.128;2023-05-07T09:26:28;6.20;;;3.00;;
73321;SDS011;61549;37.044;22.128;2023-05-07T09:29:07;3.10;;;2.75;;
73321;SDS011;61549;37.044;22.128;2023-05-07T09:31:36;5.22;;;3.60;;
73321;SDS011;61549;37.044;22.128;2023-05-07T09:34:05;4.65;;;3.30;;
73321;SDS011;61549;37.044;22.128;2023-05-07T09:36:31;5.18;;;3.83;;
73321;SDS011;61549;37.044;22.128;2023-05-07T09:39:06;4.60;;;3.80;;
73321;SDS011;61549;37.044;22.128;2023-05-07T09:41:32;6.18;;;3.80;;
73321;SDS011;61549;37.044;22.128;2023-05-07T09:43:58;5.80;;;3.80;;
73321;SDS011;61549;37.044;22.128;2023-05-07T09:46:27;6.97;;;4.32;;
73321;SDS011;61549;37.044;22.128;2023-05-07T09:48:56;4.35;;;3.78;;
73321;SDS011;61549;37.044;22.128;2023-05-07T09:54:31;7.93;;;3.80;;
73321;SDS011;61549;37.044;22.128;2023-05-07T09:57:00;5.90;;;3.90;;
73321;SDS011;61549;37.044;22.128;2023-05-07T09:59:28;5.07;;;3.80;;
73321;SDS011;61549;37.044;22.128;2023-05-07T10:01:56;4.57;;;3.38;;
73321;SDS011;61549;37.044;22.128;2023-05-07T10:04:24;7.60;;;3.78;;
73321;SDS011;61549;37.044;22.128;2023-05-07T10:06:51;4.38;;;3.33;;
73321;SDS011;61549;37.044;22.128;2023-05-07T10:09:18;6.40;;;3.80;;
73321;SDS011;61549;37.044;22.128;2023-05-07T10:11:45;4.18;;;3.58;;
73321;SDS011;61549;37.044;22.128;2023-05-07T10:14:13;4.93;;;3.72;;
73321;SDS011;61549;37.044;22.128;2023-05-07T10:16:41;3.88;;;3.47;;
73321;SDS011;61549;37.044;22.128;2023-05-07T10:19:08;5.38;;;3.63;;
73321;SDS011;61549;37.044;22.128;2023-05-07T10:21:38;5.07;;;3.60;;
73321;SDS011;61549;37.044;22.128;2023-05-07T10:27:08;5.28;;;3.70;;
73321;SDS011;61549;37.044;22.128;2023-05-07T10:29:41;4.90;;;3.40;;
73321;SDS011;61549;37.044;22.128;2023-05-07T10:32:39;5.50;;;4.15;;
73321;SDS011;61549;37.044;22.128;2023-05-07T10:35:17;6.68;;;3.67;;
73321;SDS011;61549;37.044;22.128;2023-05-07T10:37:50;5.57;;;3.70;;
73321;SDS011;61549;37.044;22.128;2023-05-07T10:40:17;4.88;;;3.40;;
73321;SDS011;61549;37.044;22.128;2023-05-07T10:42:54;6.50;;;3.53;;
73321;SDS011;61549;37.044;22.128;2023-05-07T10:45:22;6.57;;;3.70;;
73321;SDS011;61549;37.044;22.128;2023-05-07T10:50:40;3.60;;;3.30;;
73321;SDS011;61549;37.044;22.128;2023-05-07T10:58:42;5.78;;;3.10;;
73321;SDS011;61549;37.044;22.128;2023-05-07T11:01:08;4.47;;;3.38;;
73321;SDS011;61549;37.044;22.128;2023-05-07T11:03:35;4.75;;;3.13;;
73321;SDS011;61549;37.044;22.128;2023-05-07T11:06:13;4.35;;;3.30;;
73321;SDS011;61549;37.044;22.128;2023-05-07T11:11:18;5.35;;;3.40;;
73321;SDS011;61549;37.044;22.128;2023-05-07T11:13:47;6.32;;;3.58;;
73321;SDS011;61549;37.044;22.128;2023-05-07T11:16:22;4.75;;;3.67;;
73321;SDS011;61549;37.044;22.128;2023-05-07T11:18:53;3.60;;;3.30;;
73321;SDS011;61549;37.044;22.128;2023-05-07T11:21:39;4.05;;;3.42;;
73321;SDS011;61549;37.044;22.128;2023-05-07T11:24:06;6.00;;;3.42;;
73321;SDS011;61549;37.044;22.128;2023-05-07T11:26:43;6.88;;;4.00;;
73321;SDS011;61549;37.044;22.128;2023-05-07T11:29:14;5.70;;;3.50;;
73321;SDS011;61549;37.044;22.128;2023-05-07T11:31:41;4.05;;;3.28;;
73321;SDS011;61549;37.044;22.128;2023-05-07T11:34:07;5.82;;;3.63;;
73321;SDS011;61549;37.044;22.128;2023-05-07T11:36:34;5.97;;;3.63;;
73321;SDS011;61549;37.044;22.128;2023-05-07T11:39:19;4.63;;;3.35;;
73321;SDS011;61549;37.044;22.128;2023-05-07T11:41:56;3.95;;;3.33;;
73321;SDS011;61549;37.044;22.128;2023-05-07T11:44:22;5.15;;;3.55;;
73321;SDS011;61549;37.044;22.128;2023-05-07T11:46:48;4.18;;;3.28;;
73321;SDS011;61549;37.044;22.128;2023-05-07T11:49:14;3.88;;;3.17;;
73321;SDS011;61549;37.044;22.128;2023-05-07T11:51:40;5.25;;;3.58;;
73321;SDS011;61549;37.044;22.128;2023-05-07T11:54:07;7.70;;;3.83;;
73321;SDS011;61549;37.044;22.128;2023-05-07T11:59:05;4.72;;;3.67;;
73321;SDS011;61549;37.044;22.128;2023-05-07T12:01:31;4.60;;;3.50;;
73321;SDS011;61549;37.044;22.128;2023-05-07T12:03:57;5.13;;;3.80;;
73321;SDS011;61549;37.044;22.128;2023-05-07T12:06:22;5.35;;;3.38;;
73321;SDS011;61549;37.044;22.128;2023-05-07T12:08:48;4.30;;;3.17;;
73321;SDS011;61549;37.044;22.128;2023-05-07T12:11:21;4.47;;;3.20;;
73321;SDS011;61549;37.044;22.128;2023-05-07T12:16:21;6.50;;;3.30;;
73321;SDS011;61549;37.044;22.128;2023-05-07T12:18:47;5.07;;;3.00;;
73321;SDS011;61549;37.044;22.128;2023-05-07T12:21:13;7.00;;;3.58;;
73321;SDS011;61549;37.044;22.128;2023-05-07T12:23:39;4.55;;;3.17;;
73321;SDS011;61549;37.044;22.128;2023-05-07T12:26:12;6.65;;;3.45;;
73321;SDS011;61549;37.044;22.128;2023-05-07T12:28:38;3.55;;;2.95;;
73321;SDS011;61549;37.044;22.128;2023-05-07T12:31:04;5.80;;;3.28;;
73321;SDS011;61549;37.044;22.128;2023-05-07T12:33:30;3.70;;;2.90;;
73321;SDS011;61549;37.044;22.128;2023-05-07T12:35:57;5.22;;;3.10;;
73321;SDS011;61549;37.044;22.128;2023-05-07T12:38:23;4.10;;;3.15;;
73321;SDS011;61549;37.044;22.128;2023-05-07T12:40:50;4.05;;;3.05;;
73321;SDS011;61549;37.044;22.128;2023-05-07T12:43:20;3.30;;;2.95;;
73321;SDS011;61549;37.044;22.128;2023-05-07T12:45:50;5.95;;;2.92;;
73321;SDS011;61549;37.044;22.128;2023-05-07T12:48:18;3.63;;;2.90;;
73321;SDS011;61549;37.044;22.128;2023-05-07T12:50:44;3.58;;;2.90;;
73321;SDS011;61549;37.044;22.128;2023-05-07T12:53:11;6.25;;;2.65;;
73321;SDS011;61549;37.044;22.128;2023-05-07T12:55:41;4.35;;;2.90;;
73321;SDS011;61549;37.044;22.128;2023-05-07T12:58:16;3.53;;;3.08;;
73321;SDS011;61549;37.044;22.128;2023-05-07T13:00:43;4.18;;;2.75;;
73321;SDS011;61549;37.044;22.128;2023-05-07T13:06:25;3.60;;;2.80;;
73321;SDS011;61549;37.044;22.128;2023-05-07T13:11:26;3.25;;;2.78;;
73321;SDS011;61549;37.044;22.128;2023-05-07T13:13:51;3.92;;;2.75;;
73321;SDS011;61549;37.044;22.128;2023-05-07T13:16:17;4.38;;;2.80;;
73321;SDS011;61549;37.044;22.128;2023-05-07T13:18:43;3.80;;;3.00;;
73321;SDS011;61549;37.044;22.128;2023-05-07T13:21:18;5.07;;;2.85;;
73321;SDS011;61549;37.044;22.128;2023-05-07T13:23:48;5.38;;;2.78;;
73321;SDS011;61549;37.044;22.128;2023-05-07T13:26:13;3.90;;;2.72;;
73321;SDS011;61549;37.044;22.128;2023-05-07T13:28:39;2.92;;;2.47;;
73321;SDS011;61549;37.044;22.128;2023-05-07T13:31:05;4.72;;;2.50;;
73321;SDS011;61549;37.044;22.128;2023-05-07T13:33:31;3.75;;;2.83;;
73321;SDS011;61549;37.044;22.128;2023-05-07T13:35:57;3.20;;;2.35;;
73321;SDS011;61549;37.044;22.128;2023-05-07T13:38:23;3.88;;;2.63;;
73321;SDS011;61549;37.044;22.128;2023-05-07T13:40:48;4.55;;;3.10;;
73321;SDS011;61549;37.044;22.128;2023-05-07T13:43:14;3.80;;;2.80;;
73321;SDS011;61549;37.044;22.128;2023-05-07T13:45:42;4.70;;;2.85;;
73321;SDS011;61549;37.044;22.128;2023-05-07T13:48:08;4.68;;;3.00;;
73321;SDS011;61549;37.044;22.128;2023-05-07T13:50:34;3.30;;;3.00;;
73321;SDS011;61549;37.044;22.128;2023-05-07T13:53:03;4.90;;;2.70;;
73321;SDS011;61549;37.044;22.128;2023-05-07T13:55:29;3.25;;;2.70;;
73321;SDS011;61549;37.044;22.128;2023-05-07T13:57:55;3.97;;;2.83;;
73321;SDS011;61549;37.044;22.128;2023-05-07T14:00:23;4.90;;;2.92;;
73321;SDS011;61549;37.044;22.128;2023-05-07T14:02:49;4.47;;;3.00;;
73321;SDS011;61549;37.044;22.128;2023-05-07T14:05:15;5.30;;;2.88;;
73321;SDS011;61549;37.044;22.128;2023-05-07T14:07:41;5.45;;;2.80;;
73321;SDS011;61549;37.044;22.128;2023-05-07T14:10:07;4.55;;;3.10;;
73321;SDS011;61549;37.044;22.128;2023-05-07T14:12:34;3.28;;;2.97;;
73321;SDS011;61549;37.044;22.128;2023-05-07T14:15:00;7.20;;;3.33;;
73321;SDS011;61549;37.044;22.128;2023-05-07T14:17:26;4.18;;;3.15;;
73321;SDS011;61549;37.044;22.128;2023-05-07T14:19:52;4.53;;;3.30;;
73321;SDS011;61549;37.044;22.128;2023-05-07T14:22:19;4.43;;;2.90;;
73321;SDS011;61549;37.044;22.128;2023-05-07T14:24:47;5.20;;;3.30;;
73321;SDS011;61549;37.044;22.128;2023-05-07T14:27:13;3.53;;;2.53;;
73321;SDS011;61549;37.044;22.128;2023-05-07T14:29:38;4.18;;;2.75;;
73321;SDS011;61549;37.044;22.128;2023-05-07T14:32:04;4.28;;;2.80;;
73321;SDS011;61549;37.044;22.128;2023-05-07T14:34:31;4.00;;;2.95;;
73321;SDS011;61549;37.044;22.128;2023-05-07T14:36:57;6.07;;;2.90;;
73321;SDS011;61549;37.044;22.128;2023-05-07T14:39:24;6.65;;;3.13;;
73321;SDS011;61549;37.044;22.128;2023-05-07T14:41:51;4.70;;;2.85;;
73321;SDS011;61549;37.044;22.128;2023-05-07T14:44:20;3.83;;;3.10;;
73321;SDS011;61549;37.044;22.128;2023-05-07T14:46:46;3.22;;;2.75;;
73321;SDS011;61549;37.044;22.128;2023-05-07T14:49:13;4.93;;;2.90;;
73321;SDS011;61549;37.044;22.128;2023-05-07T14:51:44;3.78;;;3.03;;
73321;SDS011;61549;37.044;22.128;2023-05-07T14:54:11;4.93;;;3.03;;
73321;SDS011;61549;37.044;22.128;2023-05-07T14:56:37;4.55;;;2.80;;
73321;SDS011;61549;37.044;22.128;2023-05-07T14:59:03;3.17;;;2.58;;
73321;SDS011;61549;37.044;22.128;2023-05-07T15:01:29;5.90;;;2.90;;
73321;SDS011;61549;37.044;22.128;2023-05-07T15:03:55;5.10;;;2.95;;
73321;SDS011;61549;37.044;22.128;2023-05-07T15:06:21;3.72;;;2.90;;
73321;SDS011;61549;37.044;22.128;2023-05-07T15:08:47;4.40;;;2.95;;
73321;SDS011;61549;37.044;22.128;2023-05-07T15:11:15;5.22;;;2.70;;
73321;SDS011;61549;37.044;22.128;2023-05-07T15:13:41;4.32;;;2.80;;
73321;SDS011;61549;37.044;22.128;2023-05-07T15:16:07;3.55;;;2.60;;
73321;SDS011;61549;37.044;22.128;2023-05-07T15:18:33;4.63;;;2.70;;